Hovedside
METAR-TAF:

METAR-TAF

Lufthavner :

Sunan internasjonale lufthavn

Pyongyang, Nord-Korea

breddegrad: 39-02N, lengdegrad: 125-47E, høyde over havet: 36 m

METAR: fraværende

Tid: 06:40 (21:40 UTC)

Varsel

Denne rapporten ble laget for 17 timer og 40 minutter siden, klokken 04:00 UTC
Varsel gyldig fra 12. klokken 06 UTC til 13. klokken 06 UTC
Vind 10 kt fra Vest
Sikt 10 km eller mer
ingen skyer under 1500 m og ingen bygeskyer
Blir
fra 13. klokken 01 UTC til 13. klokken 03 UTC
Vind 8 kt fra Sør
Spredte skyer i en høyde av 2000 ft
Brutte skyer i en høyde av 3000 ft

TAF: ZKPY 120400Z 1206/1306 26005MPS CAVOK TX01/1206Z TNM06/1222Z BECMG 1301/1303 19004MPS SCT020 BKN030

Værobservasjoner og værvarsel for over 4000 flyplasser (METAR- og TAF-rapporter).

Tilgjengelige stasjoner er representert av de røde og gule prikkene på kartet.

Hold musepekeren over prikken for å se navnet på stasjonen.

Klikk så for å se værobservasjoner og -varsler.

For å forandre kartet kan du klikke på den grønne knappen med svart kryss for å zoome inn, på den grønne knappen med strek for å zoome ut, eller på de grønne pilene for å se tilstøtende kart.


METAR-TAF: